createdAt,value
2018-07-28T00:00:58.192Z,22.64
2018-07-28T00:01:59.596Z,22.79
2018-07-28T00:03:00.987Z,22.67
2018-07-28T00:04:02.374Z,22.64
2018-07-28T00:05:03.776Z,22.76
2018-07-28T00:06:05.192Z,22.69
2018-07-28T00:07:06.575Z,22.66
2018-07-28T00:08:07.971Z,22.64
2018-07-28T00:09:09.368Z,22.74
2018-07-28T00:10:10.758Z,22.69
2018-07-28T00:11:12.158Z,22.74
2018-07-28T00:12:13.562Z,22.66
2018-07-28T00:13:14.960Z,22.74
2018-07-28T00:14:16.339Z,22.67
2018-07-28T00:15:17.744Z,22.61
2018-07-28T00:16:19.119Z,22.63
2018-07-28T00:17:20.516Z,22.74
2018-07-28T00:18:21.934Z,22.70
2018-07-28T00:19:23.316Z,22.64
2018-07-28T00:20:24.704Z,22.63
2018-07-28T00:21:26.133Z,22.60
2018-07-28T00:22:28.409Z,22.57
2018-07-28T00:23:29.793Z,22.64
2018-07-28T00:24:31.195Z,22.52
2018-07-28T00:25:32.576Z,22.49
2018-07-28T00:26:33.962Z,22.57
2018-07-28T00:27:35.355Z,22.51
2018-07-28T00:28:36.734Z,22.49
2018-07-28T00:29:38.125Z,22.52
2018-07-28T00:30:39.523Z,22.49
2018-07-28T00:31:41.566Z,22.46
2018-07-28T00:32:42.973Z,22.42
2018-07-28T00:33:44.351Z,22.45
2018-07-28T00:34:45.737Z,22.39
2018-07-28T00:35:47.118Z,22.41
2018-07-28T00:36:48.513Z,22.38
2018-07-28T00:37:49.896Z,22.44
2018-07-28T00:38:51.295Z,22.49
2018-07-28T00:39:52.681Z,22.42
2018-07-28T00:40:54.079Z,22.38
2018-07-28T00:41:55.464Z,22.29
2018-07-28T00:42:56.851Z,22.33
2018-07-28T00:43:58.239Z,22.30
2018-07-28T00:44:59.629Z,22.30
2018-07-28T00:46:01.017Z,22.39
2018-07-28T00:47:02.411Z,22.31
2018-07-28T00:48:03.799Z,22.41
2018-07-28T00:49:05.197Z,22.27
2018-07-28T00:50:06.607Z,22.38
2018-07-28T00:51:07.982Z,22.35
2018-07-28T00:52:09.371Z,22.33
2018-07-28T00:53:10.768Z,22.38
2018-07-28T00:54:12.166Z,22.38
2018-07-28T00:55:13.531Z,22.33
2018-07-28T00:56:14.932Z,22.36
2018-07-28T00:57:16.318Z,22.27
2018-07-28T00:58:17.718Z,22.31
2018-07-28T00:59:19.125Z,22.27
2018-07-28T01:00:20.521Z,22.23
2018-07-28T01:01:21.908Z,22.29
2018-07-28T01:02:23.299Z,22.33
2018-07-28T01:03:24.690Z,22.35
2018-07-28T01:04:26.077Z,22.31
2018-07-28T01:05:27.489Z,22.20
2018-07-28T01:06:28.874Z,22.26
2018-07-28T01:07:30.272Z,22.20
2018-07-28T01:08:31.658Z,22.27
2018-07-28T01:09:33.056Z,22.20
2018-07-28T01:10:34.462Z,22.29
2018-07-28T01:11:35.853Z,22.30
2018-07-28T01:12:37.228Z,22.30
2018-07-28T01:13:38.625Z,22.21
2018-07-28T01:14:40.019Z,22.15
2018-07-28T01:15:41.409Z,22.20
2018-07-28T01:16:42.801Z,22.15
2018-07-28T01:17:44.184Z,22.14
2018-07-28T01:18:45.571Z,22.15
2018-07-28T01:19:46.960Z,22.12
2018-07-28T01:20:48.354Z,22.17
2018-07-28T01:21:49.739Z,22.15
2018-07-28T01:22:51.133Z,22.12
2018-07-28T01:23:52.528Z,22.19
2018-07-28T01:24:53.927Z,22.15
2018-07-28T01:25:55.326Z,22.11
2018-07-28T01:26:56.718Z,22.15
2018-07-28T01:27:58.104Z,22.09
2018-07-28T01:28:59.496Z,22.04
2018-07-28T01:30:00.901Z,22.04
2018-07-28T01:31:02.298Z,21.99
2018-07-28T01:32:03.674Z,22.04
2018-07-28T01:33:05.075Z,22.05
2018-07-28T01:34:06.463Z,22.08
2018-07-28T01:35:07.848Z,21.99
2018-07-28T01:36:09.242Z,22.01
2018-07-28T01:37:10.628Z,21.90
2018-07-28T01:38:12.019Z,21.98
2018-07-28T01:39:13.440Z,21.94
2018-07-28T01:40:14.831Z,21.91
2018-07-28T01:41:16.233Z,21.90
2018-07-28T01:42:17.623Z,21.93
2018-07-28T01:43:19.013Z,21.96
2018-07-28T01:44:20.401Z,21.91
2018-07-28T01:45:21.795Z,21.85
2018-07-28T01:46:23.182Z,21.86
2018-07-28T01:47:24.579Z,21.83
2018-07-28T01:48:25.965Z,21.82
2018-07-28T01:49:27.381Z,21.82
2018-07-28T01:50:28.738Z,21.96
2018-07-28T01:51:30.136Z,21.86
2018-07-28T01:52:31.530Z,21.89
2018-07-28T01:53:32.924Z,21.90
2018-07-28T01:54:34.315Z,21.90
2018-07-28T01:55:35.713Z,21.86
2018-07-28T01:56:37.087Z,21.83
2018-07-28T01:57:38.487Z,21.89
2018-07-28T01:58:39.871Z,21.90
2018-07-28T01:59:41.279Z,21.90
2018-07-28T02:00:42.660Z,21.79
2018-07-28T02:01:44.053Z,21.77
2018-07-28T02:02:45.453Z,21.70
2018-07-28T02:03:46.851Z,21.68
2018-07-28T02:04:48.237Z,21.73
2018-07-28T02:05:49.631Z,21.79
2018-07-28T02:06:51.006Z,21.71
2018-07-28T02:07:52.389Z,21.67
2018-07-28T02:08:53.791Z,21.71
2018-07-28T02:09:55.170Z,21.61
2018-07-28T02:10:56.564Z,21.64
2018-07-28T02:11:57.968Z,21.58
2018-07-28T02:12:59.352Z,21.55
2018-07-28T02:14:00.740Z,21.67
2018-07-28T02:15:02.126Z,21.61
2018-07-28T02:16:03.515Z,21.64
2018-07-28T02:17:04.913Z,21.56
2018-07-28T02:18:06.297Z,21.58
2018-07-28T02:19:07.688Z,21.61
2018-07-28T02:20:09.082Z,21.61
2018-07-28T02:21:10.470Z,21.61
2018-07-28T02:22:11.850Z,21.52
2018-07-28T02:23:13.256Z,21.52
2018-07-28T02:24:14.638Z,21.61
2018-07-28T02:25:16.044Z,21.61
2018-07-28T02:26:17.446Z,21.58
2018-07-28T02:27:18.828Z,21.56
2018-07-28T02:28:20.226Z,21.53
2018-07-28T02:29:21.616Z,21.53
2018-07-28T02:30:23.009Z,21.52
2018-07-28T02:31:24.409Z,21.51
2018-07-28T02:32:25.807Z,21.48
2018-07-28T02:33:27.187Z,21.49
2018-07-28T02:34:28.592Z,21.46
2018-07-28T02:35:29.976Z,21.51
2018-07-28T02:36:31.367Z,21.42
2018-07-28T02:37:32.764Z,21.51
2018-07-28T02:38:34.164Z,21.48
2018-07-28T02:39:35.543Z,21.42
2018-07-28T02:40:36.966Z,21.37
2018-07-28T02:41:38.370Z,21.38
2018-07-28T02:42:39.745Z,21.38
2018-07-28T02:43:41.135Z,21.40
2018-07-28T02:44:42.526Z,21.38
2018-07-28T02:45:43.925Z,21.36
2018-07-28T02:46:45.316Z,21.37
2018-07-28T02:47:46.707Z,21.37
2018-07-28T02:48:48.105Z,21.37
2018-07-28T02:49:49.494Z,21.42
2018-07-28T02:50:50.906Z,21.46
2018-07-28T02:51:52.288Z,21.37
2018-07-28T02:52:53.674Z,21.34
2018-07-28T02:53:55.059Z,21.37
2018-07-28T02:54:56.453Z,21.28
2018-07-28T02:55:57.853Z,21.36
2018-07-28T02:56:59.229Z,21.36
2018-07-28T02:58:00.631Z,21.36
2018-07-28T02:59:02.013Z,21.36
2018-07-28T03:00:03.416Z,21.37
2018-07-28T03:01:04.811Z,21.24
2018-07-28T03:02:06.194Z,21.30
2018-07-28T03:03:07.590Z,21.28
2018-07-28T03:04:08.978Z,21.30
2018-07-28T03:05:10.374Z,21.27
2018-07-28T03:06:11.763Z,21.26
2018-07-28T03:07:13.156Z,21.27
2018-07-28T03:08:14.544Z,21.31
2018-07-28T03:09:15.936Z,21.27
2018-07-28T03:10:17.326Z,21.21
2018-07-28T03:11:18.718Z,21.24
2018-07-28T03:12:20.122Z,21.27
2018-07-28T03:13:21.516Z,21.19
2018-07-28T03:14:22.906Z,21.28
2018-07-28T03:15:24.301Z,21.16
2018-07-28T03:16:25.700Z,21.22
2018-07-28T03:17:27.092Z,21.18
2018-07-28T03:18:28.476Z,21.18
2018-07-28T03:19:29.882Z,21.15
2018-07-28T03:20:31.282Z,21.24
2018-07-28T03:21:32.681Z,21.11
2018-07-28T03:22:34.077Z,21.16
2018-07-28T03:23:35.459Z,21.16
2018-07-28T03:24:36.854Z,21.18
2018-07-28T03:25:38.236Z,21.16
2018-07-28T03:26:39.633Z,21.09
2018-07-28T03:27:41.015Z,21.18
2018-07-28T03:28:42.421Z,21.09
2018-07-28T03:29:43.816Z,21.19
2018-07-28T03:30:45.207Z,21.13
2018-07-28T03:31:46.604Z,21.15
2018-07-28T03:32:48.004Z,21.15
2018-07-28T03:33:49.405Z,21.12
2018-07-28T03:34:50.793Z,21.08
2018-07-28T03:35:52.187Z,21.11
2018-07-28T03:36:53.576Z,21.09
2018-07-28T03:37:55.830Z,21.08
2018-07-28T03:38:57.222Z,21.13
2018-07-28T03:39:58.610Z,21.19
2018-07-28T03:40:59.998Z,21.12
2018-07-28T03:42:01.389Z,21.18
2018-07-28T03:43:02.846Z,21.15
2018-07-28T03:44:04.236Z,21.21
2018-07-28T03:45:05.631Z,21.16
2018-07-28T03:46:07.018Z,21.18
2018-07-28T03:47:08.406Z,21.15
2018-07-28T03:48:09.794Z,21.11
2018-07-28T03:49:11.714Z,21.15
2018-07-28T03:50:13.087Z,21.19
2018-07-28T03:51:14.489Z,21.12
2018-07-28T03:52:15.878Z,21.15
2018-07-28T03:53:17.275Z,21.24
2018-07-28T03:54:18.680Z,21.15
2018-07-28T03:55:20.061Z,21.27
2018-07-28T03:56:21.459Z,21.27
2018-07-28T03:57:22.853Z,21.26
2018-07-28T03:58:24.235Z,21.30
2018-07-28T03:59:26.513Z,21.26
2018-07-28T04:00:27.901Z,21.34
2018-07-28T04:01:29.295Z,21.37
2018-07-28T04:02:30.684Z,21.36
2018-07-28T04:03:32.073Z,21.34
2018-07-28T04:04:33.479Z,21.31
2018-07-28T04:05:34.870Z,21.42
2018-07-28T04:06:36.279Z,21.40
2018-07-28T04:07:37.668Z,21.43
2018-07-28T04:08:39.055Z,21.48
2018-07-28T04:09:40.448Z,21.56
2018-07-28T04:10:41.838Z,21.51
2018-07-28T04:11:43.226Z,21.53
2018-07-28T04:12:44.626Z,21.64
2018-07-28T04:13:46.032Z,21.63
2018-07-28T04:14:47.423Z,21.66
2018-07-28T04:15:51.332Z,21.75
2018-07-28T04:16:52.718Z,21.70
2018-07-28T04:17:54.117Z,21.67
2018-07-28T04:18:55.506Z,21.81
2018-07-28T04:19:56.902Z,21.89
2018-07-28T04:20:58.309Z,21.86
2018-07-28T04:21:59.704Z,21.91
2018-07-28T04:23:01.102Z,21.85
2018-07-28T04:24:02.484Z,21.83
2018-07-28T04:25:03.897Z,21.86
2018-07-28T04:26:05.961Z,21.82
2018-07-28T04:27:07.368Z,21.93
2018-07-28T04:28:08.762Z,21.94
2018-07-28T04:29:10.165Z,22.02
2018-07-28T04:30:11.564Z,22.02
2018-07-28T04:31:12.953Z,22.04
2018-07-28T04:32:14.359Z,22.12
2018-07-28T04:33:15.762Z,22.09
2018-07-28T04:34:17.145Z,22.20
2018-07-28T04:35:18.533Z,22.26
2018-07-28T04:36:19.938Z,22.29
2018-07-28T04:37:21.321Z,22.29
2018-07-28T04:38:22.719Z,22.36
2018-07-28T04:39:24.113Z,22.39
2018-07-28T04:40:25.503Z,22.44
2018-07-28T04:41:26.920Z,22.45
2018-07-28T04:42:28.326Z,22.41
2018-07-28T04:43:29.718Z,22.51
2018-07-28T04:44:31.116Z,22.56
2018-07-28T04:45:32.508Z,22.51
2018-07-28T04:46:33.909Z,22.57
2018-07-28T04:47:35.305Z,22.64
2018-07-28T04:48:36.696Z,22.64
2018-07-28T04:49:38.082Z,22.70
2018-07-28T04:50:39.477Z,22.76
2018-07-28T04:51:40.870Z,22.86
2018-07-28T04:52:42.275Z,22.91
2018-07-28T04:53:43.669Z,23.04
2018-07-28T04:54:45.063Z,23.14
2018-07-28T04:55:46.470Z,23.22
2018-07-28T04:56:47.857Z,23.22
2018-07-28T04:57:49.257Z,23.31
2018-07-28T04:58:50.645Z,23.34
2018-07-28T04:59:52.033Z,23.39
2018-07-28T05:00:53.437Z,23.56
2018-07-28T05:01:54.823Z,23.60
2018-07-28T05:02:56.229Z,23.57
2018-07-28T05:03:57.633Z,23.59
2018-07-28T05:04:59.050Z,23.54
2018-07-28T05:06:00.453Z,23.59
2018-07-28T05:07:01.864Z,23.74
2018-07-28T05:08:03.262Z,23.68
2018-07-28T05:09:04.667Z,23.77
2018-07-28T05:10:06.081Z,23.74
2018-07-28T05:11:07.479Z,23.78
2018-07-28T05:12:09.466Z,23.79
2018-07-28T05:13:10.896Z,23.84
2018-07-28T05:14:12.292Z,23.87
2018-07-28T05:15:13.708Z,23.84
2018-07-28T05:16:15.104Z,23.90
2018-07-28T05:17:16.505Z,23.86
2018-07-28T05:18:17.896Z,23.89
2018-07-28T05:19:19.304Z,23.86
2018-07-28T05:20:20.700Z,23.71
2018-07-28T05:21:22.172Z,23.81
2018-07-28T05:22:23.571Z,23.86
2018-07-28T05:23:24.995Z,23.90
2018-07-28T05:24:26.397Z,23.93
2018-07-28T05:25:27.811Z,24.08
2018-07-28T05:26:29.235Z,24.11
2018-07-28T05:27:30.623Z,24.04
2018-07-28T05:28:32.020Z,24.15
2018-07-28T05:29:33.517Z,24.21
2018-07-28T05:30:34.889Z,24.09
2018-07-28T05:31:36.329Z,24.18
2018-07-28T05:32:37.697Z,24.04
2018-07-28T05:33:39.093Z,24.09
2018-07-28T05:34:40.504Z,24.19
2018-07-28T05:35:41.915Z,24.24
2018-07-28T05:36:43.316Z,24.36
2018-07-28T05:37:44.720Z,24.60
2018-07-28T05:38:46.134Z,24.61
2018-07-28T05:39:47.534Z,24.66
2018-07-28T05:40:48.935Z,24.52
2018-07-28T05:41:50.344Z,24.63
2018-07-28T05:42:51.748Z,24.60
2018-07-28T05:43:53.158Z,24.52
2018-07-28T05:44:54.570Z,24.70
2018-07-28T05:45:55.969Z,24.90
2018-07-28T05:46:57.366Z,25.17
2018-07-28T05:47:58.771Z,25.34
2018-07-28T05:49:00.185Z,25.41
2018-07-28T05:50:01.591Z,25.39
2018-07-28T05:51:02.984Z,25.26
2018-07-28T05:52:04.382Z,25.23
2018-07-28T05:53:05.780Z,25.19
2018-07-28T05:54:07.172Z,25.20
2018-07-28T05:55:08.578Z,25.11
2018-07-28T05:56:09.974Z,25.01
2018-07-28T05:57:11.369Z,25.04
2018-07-28T05:58:12.776Z,25.24
2018-07-28T05:59:14.182Z,25.42
2018-07-28T06:00:15.596Z,25.75
2018-07-28T06:01:16.993Z,25.94
2018-07-28T06:02:18.415Z,26.08
2018-07-28T06:03:19.803Z,26.08
2018-07-28T06:04:21.216Z,25.96
2018-07-28T06:05:22.609Z,25.89
2018-07-28T06:06:24.000Z,25.79
2018-07-28T06:07:25.403Z,25.71
2018-07-28T06:08:26.817Z,25.61
2018-07-28T06:09:28.209Z,25.51
2018-07-28T06:10:29.620Z,25.54
2018-07-28T06:11:31.021Z,25.46
2018-07-28T06:12:32.429Z,25.57
2018-07-28T06:13:33.844Z,25.60
2018-07-28T06:14:35.233Z,25.59
2018-07-28T06:15:36.631Z,25.59
2018-07-28T06:16:38.044Z,25.66
2018-07-28T06:17:39.433Z,25.66
2018-07-28T06:18:40.831Z,25.63
2018-07-28T06:19:42.228Z,25.94
2018-07-28T06:20:43.641Z,26.28
2018-07-28T06:21:45.039Z,26.36
2018-07-28T06:22:47.311Z,26.34
2018-07-28T06:23:48.713Z,26.32
2018-07-28T06:24:50.126Z,26.28
2018-07-28T06:25:51.541Z,26.27
2018-07-28T06:26:52.918Z,26.28
2018-07-28T06:27:54.377Z,26.32
2018-07-28T06:28:55.734Z,26.38
2018-07-28T06:29:57.155Z,26.34
2018-07-28T06:30:58.552Z,26.42
2018-07-28T06:31:59.976Z,26.47
2018-07-28T06:33:01.365Z,26.56
2018-07-28T06:34:02.769Z,26.56
2018-07-28T06:35:04.180Z,26.57
2018-07-28T06:36:05.592Z,26.60
2018-07-28T06:37:06.995Z,26.69
2018-07-28T06:38:08.405Z,26.72
2018-07-28T06:39:09.800Z,26.84
2018-07-28T06:40:11.213Z,26.97
2018-07-28T06:41:12.633Z,27.02
2018-07-28T06:42:14.029Z,27.09
2018-07-28T06:43:15.426Z,27.27
2018-07-28T06:44:17.621Z,27.35
2018-07-28T06:45:19.005Z,27.35
2018-07-28T06:46:20.417Z,27.45
2018-07-28T06:47:21.857Z,27.59
2018-07-28T06:48:23.181Z,27.62
2018-07-28T06:49:24.577Z,27.59
2018-07-28T06:50:25.975Z,27.61
2018-07-28T06:51:27.394Z,27.77
2018-07-28T06:52:28.793Z,27.72
2018-07-28T06:53:30.209Z,27.81
2018-07-28T06:54:31.614Z,27.91
2018-07-28T06:55:33.017Z,27.86
2018-07-28T06:56:34.417Z,27.86
2018-07-28T06:57:35.822Z,27.91
2018-07-28T06:58:37.242Z,27.90
2018-07-28T06:59:38.618Z,27.95
2018-07-28T07:00:40.018Z,27.90
2018-07-28T07:01:41.409Z,27.93
2018-07-28T07:02:42.814Z,27.90
2018-07-28T07:03:44.209Z,27.87
2018-07-28T07:04:45.658Z,28.01
2018-07-28T07:05:47.013Z,27.88
2018-07-28T07:06:48.427Z,27.98
2018-07-28T07:07:49.830Z,27.95
2018-07-28T07:08:51.227Z,27.87
2018-07-28T07:09:52.638Z,27.77
2018-07-28T07:10:54.053Z,27.76
2018-07-28T07:11:55.454Z,27.69
2018-07-28T07:12:56.865Z,27.72
2018-07-28T07:13:58.282Z,27.72
2018-07-28T07:14:59.671Z,27.69
2018-07-28T07:16:01.078Z,27.83
2018-07-28T07:17:02.481Z,27.78
2018-07-28T07:18:03.883Z,27.81
2018-07-28T07:19:05.295Z,27.91
2018-07-28T07:20:06.702Z,28.08
2018-07-28T07:21:08.102Z,28.08
2018-07-28T07:22:09.502Z,28.08
2018-07-28T07:23:10.908Z,28.03
2018-07-28T07:24:13.013Z,28.08
2018-07-28T07:25:14.407Z,28.20
2018-07-28T07:26:15.824Z,28.14
2018-07-28T07:27:17.218Z,28.21
2018-07-28T07:28:18.630Z,28.40
2018-07-28T07:29:20.037Z,28.50
2018-07-28T07:30:21.477Z,28.51
2018-07-28T07:31:22.840Z,28.62
2018-07-28T07:32:24.238Z,28.67
2018-07-28T07:33:25.628Z,28.65
2018-07-28T07:34:27.035Z,28.70
2018-07-28T07:35:28.427Z,28.77
2018-07-28T07:36:29.827Z,28.73
2018-07-28T07:37:31.227Z,28.77
2018-07-28T07:38:32.642Z,28.85
2018-07-28T07:39:34.053Z,28.88
2018-07-28T07:40:35.496Z,28.95
2018-07-28T07:41:36.849Z,29.17
2018-07-28T07:42:38.250Z,29.25
2018-07-28T07:43:39.649Z,29.35
2018-07-28T07:44:41.057Z,29.37
2018-07-28T07:45:42.461Z,29.57
2018-07-28T07:46:43.861Z,29.66
2018-07-28T07:47:45.266Z,29.64
2018-07-28T07:48:46.668Z,29.76
2018-07-28T07:49:48.061Z,29.78
2018-07-28T07:50:49.466Z,29.89
2018-07-28T07:51:50.861Z,29.97
2018-07-28T07:52:52.257Z,29.95
2018-07-28T07:53:53.690Z,29.97
2018-07-28T07:54:55.060Z,30.10
2018-07-28T07:55:56.468Z,30.08
2018-07-28T07:56:57.873Z,30.13
2018-07-28T07:57:59.270Z,30.07
2018-07-28T07:59:00.680Z,30.07
2018-07-28T08:00:02.075Z,30.06
2018-07-28T08:01:03.480Z,30.15
2018-07-28T08:02:04.886Z,30.16
2018-07-28T08:03:06.279Z,30.19
2018-07-28T08:04:07.684Z,30.15
2018-07-28T08:05:09.089Z,30.15
2018-07-28T08:06:10.499Z,30.19
2018-07-28T08:07:11.897Z,30.21
2018-07-28T08:08:13.312Z,30.37
2018-07-28T08:09:14.714Z,30.44
2018-07-28T08:10:16.121Z,30.53
2018-07-28T08:11:17.509Z,30.54
2018-07-28T08:12:18.924Z,30.64
2018-07-28T08:13:20.329Z,30.63
2018-07-28T08:14:21.723Z,30.45
2018-07-28T08:15:23.122Z,30.46
2018-07-28T08:16:24.528Z,30.38
2018-07-28T08:17:25.920Z,30.21
2018-07-28T08:18:27.332Z,30.22
2018-07-28T08:19:28.743Z,30.21
2018-07-28T08:20:30.242Z,30.21
2018-07-28T08:21:31.632Z,30.18
2018-07-28T08:22:33.035Z,30.15
2018-07-28T08:23:34.463Z,30.15
2018-07-28T08:24:35.849Z,30.15
2018-07-28T08:25:37.234Z,30.07
2018-07-28T08:26:38.660Z,30.08
2018-07-28T08:27:40.062Z,30.11
2018-07-28T08:28:41.462Z,30.30
2018-07-28T08:29:42.870Z,30.25
2018-07-28T08:30:44.277Z,30.26
2018-07-28T08:31:45.677Z,30.28
2018-07-28T08:32:47.090Z,30.22
2018-07-28T08:33:48.519Z,30.28
2018-07-28T08:34:50.072Z,30.36
2018-07-28T08:35:51.467Z,30.40
2018-07-28T08:36:52.883Z,30.48
2018-07-28T08:37:54.344Z,30.38
2018-07-28T08:38:55.693Z,30.51
2018-07-28T08:39:57.122Z,30.40
2018-07-28T08:40:58.516Z,30.54
2018-07-28T08:41:59.927Z,30.57
2018-07-28T08:43:01.325Z,30.60
2018-07-28T08:44:02.754Z,30.54
2018-07-28T08:45:04.166Z,30.56
2018-07-28T08:46:05.569Z,30.57
2018-07-28T08:47:06.986Z,30.40
2018-07-28T08:48:08.438Z,30.57
2018-07-28T08:49:09.902Z,30.63
2018-07-28T08:50:11.240Z,30.67
2018-07-28T08:51:12.650Z,30.60
2018-07-28T08:52:15.033Z,30.73
2018-07-28T08:53:16.471Z,30.68
2018-07-28T08:54:17.882Z,30.67
2018-07-28T08:55:19.293Z,30.66
2018-07-28T08:56:20.704Z,30.60
2018-07-28T08:57:22.114Z,30.76
2018-07-28T08:58:23.509Z,30.70
2018-07-28T08:59:24.909Z,30.63
2018-07-28T09:00:26.339Z,30.51
2018-07-28T09:01:27.755Z,30.66
2018-07-28T09:02:29.153Z,30.53
2018-07-28T09:03:30.551Z,30.59
2018-07-28T09:04:31.986Z,30.59
2018-07-28T09:05:33.393Z,30.70
2018-07-28T09:06:34.781Z,30.63
2018-07-28T09:07:36.183Z,30.79
2018-07-28T09:08:37.610Z,30.90
2018-07-28T09:09:39.044Z,31.00
2018-07-28T09:10:40.545Z,30.90
2018-07-28T09:11:41.876Z,30.97
2018-07-28T09:12:43.300Z,31.05
2018-07-28T09:13:44.696Z,31.01
2018-07-28T09:14:46.107Z,30.94
2018-07-28T09:15:47.508Z,30.97
2018-07-28T09:16:48.910Z,31.09
2018-07-28T09:17:50.317Z,31.12
2018-07-28T09:18:51.709Z,31.07
2018-07-28T09:19:53.114Z,31.20
2018-07-28T09:20:54.521Z,31.23
2018-07-28T09:21:55.949Z,31.28
2018-07-28T09:22:58.215Z,31.32
2018-07-28T09:23:59.632Z,31.40
2018-07-28T09:25:01.051Z,31.50
2018-07-28T09:26:02.435Z,31.56
2018-07-28T09:27:03.865Z,31.75
2018-07-28T09:28:05.269Z,31.79
2018-07-28T09:29:06.698Z,31.71
2018-07-28T09:30:08.101Z,31.71
2018-07-28T09:31:09.503Z,31.60
2018-07-28T09:32:10.907Z,31.57
2018-07-28T09:33:12.313Z,31.41
2018-07-28T09:34:13.732Z,31.41
2018-07-28T09:35:15.133Z,31.31
2018-07-28T09:36:16.553Z,31.12
2018-07-28T09:37:17.939Z,31.19
2018-07-28T09:38:19.349Z,31.19
2018-07-28T09:39:20.762Z,31.38
2018-07-28T09:40:22.160Z,31.32
2018-07-28T09:41:23.590Z,31.32
2018-07-28T09:42:25.006Z,31.59
2018-07-28T09:43:26.403Z,31.64
2018-07-28T09:44:27.825Z,31.69
2018-07-28T09:45:29.230Z,31.84
2018-07-28T09:46:31.251Z,31.85
2018-07-28T09:47:32.668Z,31.71
2018-07-28T09:48:34.075Z,31.69
2018-07-28T09:49:35.502Z,31.68
2018-07-28T09:50:36.912Z,31.49
2018-07-28T09:51:38.314Z,31.57
2018-07-28T09:52:39.716Z,31.65
2018-07-28T09:53:41.118Z,31.68
2018-07-28T09:54:42.534Z,31.74
2018-07-28T09:55:43.941Z,31.68
2018-07-28T09:56:45.353Z,31.71
2018-07-28T09:57:46.767Z,31.68
2018-07-28T09:58:48.180Z,31.74
2018-07-28T09:59:49.597Z,31.79
2018-07-28T10:00:50.998Z,31.78
2018-07-28T10:01:52.401Z,31.74
2018-07-28T10:02:53.801Z,31.82
2018-07-28T10:03:55.218Z,31.79
2018-07-28T10:04:56.632Z,31.85
2018-07-28T10:05:58.040Z,31.75
2018-07-28T10:06:59.436Z,31.76
2018-07-28T10:08:00.842Z,31.69
2018-07-28T10:09:02.251Z,31.71
2018-07-28T10:10:03.664Z,31.87
2018-07-28T10:11:05.972Z,31.91
2018-07-28T10:12:07.366Z,31.94
2018-07-28T10:13:08.784Z,31.92
2018-07-28T10:14:10.162Z,31.92
2018-07-28T10:15:11.568Z,32.02
2018-07-28T10:16:13.041Z,31.92
2018-07-28T10:17:14.382Z,31.90
2018-07-28T10:18:15.794Z,31.91
2018-07-28T10:19:17.200Z,31.97
2018-07-28T10:20:18.607Z,31.99
2018-07-28T10:21:20.926Z,31.98
2018-07-28T10:22:22.337Z,32.05
2018-07-28T10:23:23.737Z,32.03
2018-07-28T10:24:25.143Z,32.06
2018-07-28T10:25:26.545Z,32.03
2018-07-28T10:26:27.946Z,32.06
2018-07-28T10:27:29.361Z,31.99
2018-07-28T10:28:30.780Z,31.91
2018-07-28T10:29:32.191Z,32.05
2018-07-28T10:30:33.590Z,31.94
2018-07-28T10:31:34.987Z,32.09
2018-07-28T10:32:36.395Z,31.97
2018-07-28T10:33:37.795Z,31.98
2018-07-28T10:34:39.219Z,32.10
2018-07-28T10:35:40.611Z,32.06
2018-07-28T10:36:42.051Z,32.25
2018-07-28T10:37:44.143Z,32.27
2018-07-28T10:38:45.537Z,32.25
2018-07-28T10:39:46.925Z,32.16
2018-07-28T10:40:48.337Z,31.98
2018-07-28T10:41:49.748Z,31.88
2018-07-28T10:42:51.158Z,31.92
2018-07-28T10:43:52.560Z,31.82
2018-07-28T10:44:53.956Z,31.97
2018-07-28T10:45:55.370Z,31.85
2018-07-28T10:46:56.783Z,31.82
2018-07-28T10:47:58.180Z,31.84
2018-07-28T10:48:59.584Z,31.90
2018-07-28T10:50:00.993Z,32.05
2018-07-28T10:51:02.393Z,32.03
2018-07-28T10:52:03.827Z,32.07
2018-07-28T10:53:05.226Z,32.19
2018-07-28T10:54:06.632Z,32.27
2018-07-28T10:55:08.039Z,32.27
2018-07-28T10:56:09.441Z,32.29
2018-07-28T10:57:10.851Z,32.28
2018-07-28T10:58:12.257Z,32.32
2018-07-28T10:59:13.673Z,32.46
2018-07-28T11:00:15.054Z,32.46
2018-07-28T11:01:16.455Z,32.61
2018-07-28T11:02:17.869Z,32.65
2018-07-28T11:03:19.281Z,32.61
2018-07-28T11:04:20.694Z,32.61
2018-07-28T11:05:22.109Z,32.63
2018-07-28T11:06:23.469Z,32.65
2018-07-28T11:07:24.882Z,32.65
2018-07-28T11:08:26.289Z,32.68
2018-07-28T11:09:27.690Z,32.53
2018-07-28T11:10:29.104Z,32.56
2018-07-28T11:11:30.516Z,32.53
2018-07-28T11:12:31.916Z,32.50
2018-07-28T11:13:33.328Z,32.59
2018-07-28T11:14:35.637Z,32.65
2018-07-28T11:15:37.056Z,32.59
2018-07-28T11:16:38.460Z,32.66
2018-07-28T11:17:39.865Z,32.76
2018-07-28T11:18:41.313Z,32.93
2018-07-28T11:19:42.624Z,33.11
2018-07-28T11:20:44.046Z,33.43
2018-07-28T11:21:45.406Z,33.94
2018-07-28T11:22:47.389Z,34.63
2018-07-28T11:23:48.801Z,35.31
2018-07-28T11:24:50.220Z,35.95
2018-07-28T11:25:51.630Z,36.69
2018-07-28T11:26:52.961Z,36.94
2018-07-28T11:27:54.310Z,37.59
2018-07-28T11:28:55.681Z,37.99
2018-07-28T11:29:57.129Z,38.21
2018-07-28T11:30:58.491Z,38.60
2018-07-28T11:31:59.918Z,38.58
2018-07-28T11:33:01.228Z,38.50
2018-07-28T11:34:02.584Z,38.41
2018-07-28T11:35:04.008Z,38.52
2018-07-28T11:36:05.358Z,38.63
2018-07-28T11:37:06.804Z,39.02
2018-07-28T11:38:08.175Z,38.93
2018-07-28T11:39:09.568Z,39.25
2018-07-28T11:40:10.979Z,39.66
2018-07-28T11:41:12.354Z,40.00
2018-07-28T11:42:13.716Z,39.53
2018-07-28T11:43:15.087Z,38.68
2018-07-28T11:44:16.459Z,38.21
2018-07-28T11:45:17.825Z,37.75
2018-07-28T11:46:19.925Z,37.58
2018-07-28T11:47:21.337Z,37.34
2018-07-28T11:48:22.753Z,36.82
2018-07-28T11:49:24.144Z,36.30
2018-07-28T11:50:25.553Z,35.59
2018-07-28T11:51:27.007Z,35.36
2018-07-28T11:52:28.365Z,35.10
2018-07-28T11:53:29.785Z,34.64
2018-07-28T11:54:31.191Z,34.18
2018-07-28T11:55:32.605Z,33.77
2018-07-28T11:56:33.998Z,33.59
2018-07-28T11:57:35.421Z,33.43
2018-07-28T11:58:36.831Z,33.34
2018-07-28T11:59:38.183Z,33.14
2018-07-28T12:00:39.609Z,33.09
2018-07-28T12:01:41.513Z,33.11
2018-07-28T12:02:43.712Z,33.15
2018-07-28T12:03:45.995Z,33.31
2018-07-28T12:04:47.416Z,33.35
2018-07-28T12:05:48.824Z,33.24
2018-07-28T12:06:50.246Z,33.31
2018-07-28T12:07:51.645Z,33.43
2018-07-28T12:08:53.640Z,33.65
2018-07-28T12:09:55.605Z,33.72
2018-07-28T12:10:57.034Z,33.94
2018-07-28T12:11:58.440Z,33.81
2018-07-28T12:12:59.853Z,33.68
2018-07-28T12:14:01.255Z,33.72
2018-07-28T12:15:03.258Z,33.63
2018-07-28T12:16:04.663Z,33.65
2018-07-28T12:17:06.844Z,33.37
2018-07-28T12:18:08.329Z,33.43
2018-07-28T12:19:09.629Z,33.59
2018-07-28T12:20:11.031Z,33.50
2018-07-28T12:21:12.423Z,33.50
2018-07-28T12:22:14.421Z,33.52
2018-07-28T12:23:15.823Z,33.60
2018-07-28T12:24:17.247Z,33.63
2018-07-28T12:25:18.680Z,33.65
2018-07-28T12:26:20.091Z,33.59
2018-07-28T12:27:21.511Z,33.66
2018-07-28T12:28:22.909Z,33.47
2018-07-28T12:29:24.318Z,33.56
2018-07-28T12:30:25.720Z,33.62
2018-07-28T12:31:27.121Z,33.63
2018-07-28T12:32:28.555Z,33.40
2018-07-28T12:33:29.948Z,33.41
2018-07-28T12:34:31.350Z,33.44
2018-07-28T12:35:32.766Z,33.71
2018-07-28T12:36:34.170Z,33.63
2018-07-28T12:37:36.532Z,33.52
2018-07-28T12:38:37.914Z,33.55
2018-07-28T12:39:39.344Z,33.57
2018-07-28T12:40:41.430Z,33.47
2018-07-28T12:41:42.878Z,33.43
2018-07-28T12:42:44.252Z,33.52
2018-07-28T12:43:46.565Z,33.63
2018-07-28T12:44:47.972Z,33.62
2018-07-28T12:45:49.370Z,33.65
2018-07-28T12:46:50.785Z,33.40
2018-07-28T12:47:52.208Z,33.15
2018-07-28T12:48:53.603Z,33.03
2018-07-28T12:49:55.013Z,33.15
2018-07-28T12:50:56.413Z,33.26
2018-07-28T12:51:57.821Z,33.05
2018-07-28T12:52:59.223Z,32.96
2018-07-28T12:54:01.234Z,32.77
2018-07-28T12:55:02.657Z,32.59
2018-07-28T12:56:04.066Z,32.47
2018-07-28T12:57:05.474Z,32.54
2018-07-28T12:58:07.778Z,32.54
2018-07-28T12:59:09.196Z,32.68
2018-07-28T13:00:10.599Z,32.73
2018-07-28T13:01:12.031Z,32.54
2018-07-28T13:02:13.447Z,32.47
2018-07-28T13:03:14.879Z,32.32
2018-07-28T13:04:16.304Z,32.21
2018-07-28T13:05:17.703Z,32.16
2018-07-28T13:06:19.143Z,32.05
2018-07-28T13:07:20.560Z,31.98
2018-07-28T13:08:21.974Z,31.99
2018-07-28T13:09:23.397Z,31.94
2018-07-28T13:10:24.808Z,32.03
2018-07-28T13:11:26.211Z,31.98